Terminal Aerodrome Forecast
Issued by NWS

Home | Current Version | Previous Version | Text Only | Print | Product List | Glossary On
Versions: 1 2 3 4 5 6 7 8 9 10 11 12 13 14
595
FTUS42 KMLB 151355 AAA
TAFLEE
TAF AMD
KLEE 151355Z 1514/1612 18007KT P6SM BKN040 BKN070
     FM151600 24008KT P6SM BKN045 BKN070
     FM160000 VRB04KT P6SM SCT040 SCT250=

USA.gov is the U.S. government's official web portal to all federal, state and local government web resources and services.